Time;durP1;ratioP1;P1;durP2;ratioP2;P2;SDS_P1;SDS_P2;PMS_P1;PMS_P2;Temp;Humidity;BMP_temperature;BMP_pressure;BME280_temperature;BME280_humidity;BME280_pressure;Samples;Min_cycle;Max_cycle;Signal;HPM_P1;HPM_P2
2023/07/13 00:01:43;;;;;;;22.42;7.82;;;;;;;;;;5057987;28;20025;-54
2023/07/13 00:04:09;;;;;;;21.05;8.18;;;;;;;;;;5057110;28;20066;-56
2023/07/13 00:06:35;;;;;;;18.52;8.63;;;;;;;;;;5059128;28;20033;-53
2023/07/13 00:09:02;;;;;;;19.50;7.82;;;;;;;;;;5058015;28;20021;-57
2023/07/13 00:11:28;;;;;;;18.83;7.90;;;;;;;;;;5057855;28;20472;-51
2023/07/13 00:13:54;;;;;;;19.15;8.27;;;;;;;;;;5057487;28;20151;-53
2023/07/13 00:16:20;;;;;;;22.30;9.57;;;;;;;;;;5057691;28;20473;-57
2023/07/13 00:18:47;;;;;;;25.67;9.02;;;;;;;;;;5056519;28;20039;-57
2023/07/13 00:21:14;;;;;;;22.92;9.25;;;;;;;;;;5057807;28;20465;-57
2023/07/13 00:23:41;;;;;;;21.10;8.82;;;;;;;;;;5056460;28;20029;-54
2023/07/13 00:26:08;;;;;;;19.00;7.40;;;;;;;;;;5055776;28;20016;-55
2023/07/13 00:28:35;;;;;;;18.67;7.95;;;;;;;;;;5057762;28;20029;-54
2023/07/13 00:31:01;;;;;;;18.00;7.30;;;;;;;;;;5057603;28;20021;-56
2023/07/13 00:33:28;;;;;;;18.20;7.75;;;;;;;;;;5057570;28;20065;-56
2023/07/13 00:35:55;;;;;;;16.77;8.15;;;;;;;;;;5056878;28;20029;-56
2023/07/13 00:38:21;;;;;;;17.90;7.57;;;;;;;;;;5057764;28;20056;-58
2023/07/13 00:40:47;;;;;;;19.35;8.13;;;;;;;;;;5054900;28;20108;-57
2023/07/13 00:43:21;;;;;;;16.63;8.57;;;;;;;;;;5053152;28;20150;-58
2023/07/13 00:45:47;;;;;;;19.98;8.60;;;;;;;;;;5053644;28;20050;-55
2023/07/13 00:48:14;;;;;;;20.02;8.63;;;;;;;;;;5054354;28;20385;-53
2023/07/13 00:50:41;;;;;;;18.95;8.30;;;;;;;;;;5054187;28;20032;-56
2023/07/13 00:53:08;;;;;;;17.92;7.85;;;;;;;;;;5054261;28;20033;-52
2023/07/13 00:55:34;;;;;;;16.38;7.78;;;;;;;;;;5052214;28;20507;-54
2023/07/13 00:58:02;;;;;;;17.27;8.82;;;;;;;;;;5054228;28;20112;-52
2023/07/13 01:00:29;;;;;;;20.58;8.35;;;;;;;;;;5052566;28;20037;-52
2023/07/13 01:02:55;;;;;;;18.15;7.97;;;;;;;;;;5054053;28;20473;-53
2023/07/13 01:05:22;;;;;;;17.10;7.53;;;;;;;;;;5053149;28;20022;-54
2023/07/13 01:07:50;;;;;;;18.70;8.13;;;;;;;;;;5054112;28;20025;-55
2023/07/13 01:10:16;;;;;;;20.02;8.27;;;;;;;;;;5053753;28;20107;-52
2023/07/13 01:12:42;;;;;;;16.48;7.85;;;;;;;;;;5053793;28;20107;-54
2023/07/13 01:15:26;;;;;;;18.55;8.05;;;;;;;;;;5059558;28;20028;-50
2023/07/13 01:17:53;;;;;;;16.35;7.72;;;;;;;;;;5065794;28;20032;-51
2023/07/13 01:20:18;;;;;;;17.90;8.25;;;;;;;;;;5073707;28;20099;-54
2023/07/13 01:22:44;;;;;;;17.95;7.88;;;;;;;;;;5073687;28;20135;-59
2023/07/13 01:25:11;;;;;;;23.35;7.60;;;;;;;;;;5072006;28;20028;-54
2023/07/13 01:27:37;;;;;;;20.92;7.60;;;;;;;;;;5073196;28;20028;-54
2023/07/13 01:30:03;;;;;;;22.00;7.68;;;;;;;;;;5073276;28;20418;-53
2023/07/13 01:32:31;;;;;;;20.15;7.82;;;;;;;;;;5073239;28;20029;-58
2023/07/13 01:34:57;;;;;;;18.90;7.28;;;;;;;;;;5072623;28;20078;-58
2023/07/13 01:37:24;;;;;;;23.85;8.32;;;;;;;;;;5073680;28;20029;-56
2023/07/13 01:39:50;;;;;;;18.40;7.85;;;;;;;;;;5073217;28;20613;-56
2023/07/13 01:42:16;;;;;;;17.40;8.18;;;;;;;;;;5073249;28;20475;-55
2023/07/13 01:44:43;;;;;;;21.30;7.45;;;;;;;;;;5072459;28;20048;-55
2023/07/13 01:47:09;;;;;;;17.60;8.00;;;;;;;;;;5073217;28;20034;-56
2023/07/13 01:49:35;;;;;;;16.85;7.90;;;;;;;;;;5073028;28;20108;-59
2023/07/13 01:52:01;;;;;;;16.98;8.07;;;;;;;;;;5072852;28;20021;-54
2023/07/13 01:54:27;;;;;;;19.63;8.23;;;;;;;;;;5072247;28;20111;-56
2023/07/13 01:56:53;;;;;;;20.45;8.23;;;;;;;;;;5072962;28;20078;-53
2023/07/13 01:59:19;;;;;;;19.00;8.60;;;;;;;;;;5072597;28;20036;-58
2023/07/13 02:01:45;;;;;;;20.33;7.85;;;;;;;;;;5072688;28;20032;-57
2023/07/13 02:04:11;;;;;;;20.38;8.18;;;;;;;;;;5072078;28;20107;-56
2023/07/13 02:06:36;;;;;;;20.67;7.90;;;;;;;;;;5072837;28;20016;-57
2023/07/13 02:09:03;;;;;;;17.25;7.63;;;;;;;;;;5072626;28;20029;-58
2023/07/13 02:11:32;;;;;;;19.00;8.63;;;;;;;;;;5072742;28;20025;-54
2023/07/13 02:13:59;;;;;;;19.70;7.35;;;;;;;;;;5072134;28;20021;-55
2023/07/13 02:16:25;;;;;;;21.50;8.13;;;;;;;;;;5072474;28;20046;-55
2023/07/13 02:18:52;;;;;;;20.17;8.73;;;;;;;;;;5072474;28;20016;-50
2023/07/13 02:21:18;;;;;;;19.63;8.07;;;;;;;;;;5071170;28;20025;-56
2023/07/13 02:23:44;;;;;;;18.92;8.45;;;;;;;;;;5072292;28;20025;-52
2023/07/13 02:26:10;;;;;;;18.42;8.30;;;;;;;;;;5070679;28;20025;-56
2023/07/13 02:28:36;;;;;;;22.42;8.77;;;;;;;;;;5072507;28;20028;-53
2023/07/13 02:31:09;;;;;;;19.63;8.90;;;;;;;;;;5072461;28;20195;-56
2023/07/13 02:33:35;;;;;;;18.98;7.53;;;;;;;;;;5072926;28;20035;-57
2023/07/13 02:36:02;;;;;;;18.38;7.68;;;;;;;;;;5080317;28;20437;-58
2023/07/13 02:38:28;;;;;;;19.45;7.85;;;;;;;;;;5080489;28;20163;-57
2023/07/13 02:40:54;;;;;;;16.95;7.45;;;;;;;;;;5079523;28;20039;-56
2023/07/13 02:43:20;;;;;;;18.15;7.55;;;;;;;;;;5072923;28;20028;-51
2023/07/13 02:45:46;;;;;;;18.92;7.40;;;;;;;;;;5071528;28;20016;-53
2023/07/13 02:48:14;;;;;;;16.88;6.90;;;;;;;;;;5072163;28;20021;-51
2023/07/13 02:50:40;;;;;;;22.95;7.85;;;;;;;;;;5071805;28;20025;-54
2023/07/13 02:53:06;;;;;;;16.65;7.50;;;;;;;;;;5071848;28;20086;-56
2023/07/13 02:55:32;;;;;;;17.20;7.15;;;;;;;;;;5069842;28;20033;-56
2023/07/13 02:57:58;;;;;;;18.33;7.18;;;;;;;;;;5071985;28;20028;-54
2023/07/13 03:00:24;;;;;;;19.02;7.72;;;;;;;;;;5071609;28;20039;-55
2023/07/13 03:02:50;;;;;;;19.35;6.85;;;;;;;;;;5071875;28;20081;-54
2023/07/13 03:05:16;;;;;;;17.48;7.07;;;;;;;;;;5070381;28;20115;-58
2023/07/13 03:07:43;;;;;;;19.08;7.30;;;;;;;;;;5071800;28;20016;-58
2023/07/13 03:10:09;;;;;;;18.52;6.75;;;;;;;;;;5071534;28;20021;-54
2023/07/13 03:12:35;;;;;;;19.30;6.63;;;;;;;;;;5071304;28;20096;-53
2023/07/13 03:15:01;;;;;;;20.45;7.10;;;;;;;;;;5070743;28;20122;-55
2023/07/13 03:17:27;;;;;;;18.55;6.80;;;;;;;;;;5071790;28;20115;-57
2023/07/13 03:19:54;;;;;;;18.17;6.50;;;;;;;;;;5071662;28;20091;-58
2023/07/13 03:22:20;;;;;;;16.25;6.82;;;;;;;;;;5071130;28;20031;-56
2023/07/13 03:24:46;;;;;;;16.13;6.47;;;;;;;;;;5069388;28;20028;-57
2023/07/13 03:27:12;;;;;;;20.50;6.97;;;;;;;;;;5071518;28;20024;-56
2023/07/13 03:29:38;;;;;;;19.55;6.75;;;;;;;;;;5071528;28;20024;-56
2023/07/13 03:32:04;;;;;;;17.05;6.22;;;;;;;;;;5071528;28;20461;-53
2023/07/13 03:34:30;;;;;;;15.15;6.40;;;;;;;;;;5070358;28;20127;-58
2023/07/13 03:36:57;;;;;;;17.17;6.60;;;;;;;;;;5071401;28;20126;-58
2023/07/13 03:39:23;;;;;;;16.27;6.80;;;;;;;;;;5071233;28;20047;-59
2023/07/13 03:41:49;;;;;;;17.67;6.50;;;;;;;;;;5070206;28;20085;-57
2023/07/13 03:44:17;;;;;;;18.77;6.65;;;;;;;;;;5069174;28;20123;-54
2023/07/13 03:46:43;;;;;;;18.73;6.70;;;;;;;;;;5071458;28;20031;-55
2023/07/13 03:49:09;;;;;;;16.38;7.20;;;;;;;;;;5071213;28;20013;-54
2023/07/13 03:51:36;;;;;;;17.60;6.47;;;;;;;;;;5071327;28;20537;-57
2023/07/13 03:54:02;;;;;;;22.50;7.05;;;;;;;;;;5070805;28;20025;-53
2023/07/13 03:56:28;;;;;;;18.33;6.50;;;;;;;;;;5069534;28;20032;-59
2023/07/13 03:58:54;;;;;;;15.95;6.68;;;;;;;;;;5069867;28;20036;-52
2023/07/13 04:01:21;;;;;;;15.75;7.18;;;;;;;;;;5071121;28;20139;-58
2023/07/13 04:03:48;;;;;;;17.20;7.07;;;;;;;;;;5070725;28;20028;-54
2023/07/13 04:06:20;;;;;;;21.42;7.95;;;;;;;;;;5070680;28;20024;-57
2023/07/13 04:08:47;;;;;;;18.50;6.93;;;;;;;;;;5069941;28;20589;-58
2023/07/13 04:11:13;;;;;;;18.95;6.63;;;;;;;;;;5071050;28;20025;-57
2023/07/13 04:13:39;;;;;;;17.73;6.80;;;;;;;;;;5069858;28;20020;-58
2023/07/13 04:16:05;;;;;;;15.15;6.55;;;;;;;;;;5073003;28;20048;-57
2023/07/13 04:18:31;;;;;;;18.30;6.88;;;;;;;;;;5074995;28;20370;-58
2023/07/13 04:20:57;;;;;;;17.60;6.82;;;;;;;;;;5074742;28;20063;-57
2023/07/13 04:23:23;;;;;;;21.65;7.30;;;;;;;;;;5074487;28;20056;-57
2023/07/13 04:25:52;;;;;;;15.68;6.50;;;;;;;;;;5072734;28;20473;-54
2023/07/13 04:28:18;;;;;;;18.85;7.60;;;;;;;;;;5073462;28;20021;-59
2023/07/13 04:30:44;;;;;;;22.02;6.80;;;;;;;;;;5074453;28;20028;-54
2023/07/13 04:33:10;;;;;;;17.52;7.25;;;;;;;;;;5073183;28;20419;-53
2023/07/13 04:35:37;;;;;;;18.55;7.18;;;;;;;;;;5073672;28;20033;-58
2023/07/13 04:38:03;;;;;;;19.27;7.38;;;;;;;;;;5074638;28;20702;-53
2023/07/13 04:40:29;;;;;;;17.65;6.97;;;;;;;;;;5074594;28;20029;-51
2023/07/13 04:42:56;;;;;;;16.08;6.30;;;;;;;;;;5074277;28;20036;-57
2023/07/13 04:45:24;;;;;;;17.60;7.00;;;;;;;;;;5073403;28;20021;-57
2023/07/13 04:47:50;;;;;;;16.73;6.70;;;;;;;;;;5074346;28;20136;-52
2023/07/13 04:50:20;;;;;;;15.90;6.43;;;;;;;;;;5074165;28;20484;-57
2023/07/13 04:52:46;;;;;;;15.57;6.30;;;;;;;;;;5073959;28;20115;-56
2023/07/13 04:55:12;;;;;;;18.15;7.25;;;;;;;;;;5073333;28;20040;-52
2023/07/13 04:57:38;;;;;;;18.77;6.47;;;;;;;;;;5072537;28;20369;-56
2023/07/13 05:00:05;;;;;;;19.23;7.97;;;;;;;;;;5073723;28;20036;-55
2023/07/13 05:02:32;;;;;;;19.08;7.47;;;;;;;;;;5073964;28;20031;-53
2023/07/13 05:04:58;;;;;;;20.52;6.93;;;;;;;;;;5073250;28;20055;-57
2023/07/13 05:07:25;;;;;;;16.05;6.55;;;;;;;;;;5073694;28;20058;-55
2023/07/13 05:09:51;;;;;;;19.58;7.15;;;;;;;;;;5073610;28;20017;-56
2023/07/13 05:12:17;;;;;;;16.90;6.90;;;;;;;;;;5073643;28;20036;-55
2023/07/13 05:14:43;;;;;;;18.13;7.10;;;;;;;;;;5073103;28;20555;-56
2023/07/13 05:17:09;;;;;;;20.55;7.75;;;;;;;;;;5072293;28;20028;-55
2023/07/13 05:19:35;;;;;;;17.80;6.80;;;;;;;;;;5073543;28;20024;-54
2023/07/13 05:22:02;;;;;;;18.40;7.10;;;;;;;;;;5071929;28;20032;-54
2023/07/13 05:24:28;;;;;;;19.23;6.63;;;;;;;;;;5070484;28;20412;-52
2023/07/13 05:26:54;;;;;;;18.05;6.72;;;;;;;;;;5071279;28;20491;-53
2023/07/13 05:29:21;;;;;;;21.35;7.70;;;;;;;;;;5067551;28;20021;-51
2023/07/13 05:31:47;;;;;;;18.23;6.80;;;;;;;;;;5070619;28;20032;-53
2023/07/13 05:34:13;;;;;;;16.73;7.38;;;;;;;;;;5072429;28;20029;-53
2023/07/13 05:36:39;;;;;;;20.65;7.60;;;;;;;;;;5073236;28;20024;-53
2023/07/13 05:39:05;;;;;;;18.85;7.03;;;;;;;;;;5071947;28;20028;-54
2023/07/13 05:41:31;;;;;;;18.25;7.00;;;;;;;;;;5080897;28;20025;-56
2023/07/13 05:43:57;;;;;;;17.05;7.05;;;;;;;;;;5072804;28;20472;-53
2023/07/13 05:46:23;;;;;;;19.45;7.05;;;;;;;;;;5071862;28;20134;-50
2023/07/13 05:48:49;;;;;;;21.77;7.90;;;;;;;;;;5072611;28;20070;-55
2023/07/13 05:51:15;;;;;;;19.48;7.28;;;;;;;;;;5073112;28;20009;-54
2023/07/13 05:53:41;;;;;;;19.48;7.22;;;;;;;;;;5072515;28;20039;-55
2023/07/13 05:56:07;;;;;;;19.88;7.10;;;;;;;;;;5071933;28;20070;-54
2023/07/13 05:58:34;;;;;;;19.42;7.40;;;;;;;;;;5072842;28;20040;-55
2023/07/13 06:01:05;;;;;;;19.52;8.40;;;;;;;;;;5072611;28;20043;-58
2023/07/13 06:03:31;;;;;;;19.15;7.30;;;;;;;;;;5072521;28;20150;-55
2023/07/13 06:06:00;;;;;;;21.48;7.05;;;;;;;;;;5073163;28;20055;-55
2023/07/13 06:08:25;;;;;;;19.52;7.82;;;;;;;;;;5072700;28;20496;-55
2023/07/13 06:10:51;;;;;;;19.92;8.45;;;;;;;;;;5072495;28;20028;-54
2023/07/13 06:13:19;;;;;;;17.75;7.25;;;;;;;;;;5072454;28;20632;-53
2023/07/13 06:15:48;;;;;;;21.77;8.02;;;;;;;;;;5071535;28;20028;-56
2023/07/13 06:18:14;;;;;;;16.45;7.50;;;;;;;;;;5072444;28;20025;-55
2023/07/13 06:20:40;;;;;;;21.00;8.07;;;;;;;;;;5072493;28;20028;-54
2023/07/13 06:23:06;;;;;;;16.80;7.88;;;;;;;;;;5072437;28;20107;-56
2023/07/13 06:25:32;;;;;;;22.85;7.80;;;;;;;;;;5071699;28;20017;-54
2023/07/13 06:27:58;;;;;;;21.35;7.70;;;;;;;;;;5072288;28;20016;-55
2023/07/13 06:30:24;;;;;;;20.67;7.22;;;;;;;;;;5072222;28;20370;-56
2023/07/13 06:32:50;;;;;;;17.48;7.57;;;;;;;;;;5070743;28;20040;-54
2023/07/13 06:35:16;;;;;;;19.00;8.00;;;;;;;;;;5071410;28;20085;-57
2023/07/13 06:37:42;;;;;;;17.85;7.47;;;;;;;;;;5072017;28;20020;-57
2023/07/13 06:40:08;;;;;;;20.83;7.50;;;;;;;;;;5069432;28;20484;-55
2023/07/13 06:42:34;;;;;;;19.08;8.18;;;;;;;;;;5061483;28;20024;-53
2023/07/13 06:45:00;;;;;;;17.73;7.60;;;;;;;;;;5064555;28;20021;-57
2023/07/13 06:47:27;;;;;;;22.27;7.78;;;;;;;;;;5051675;28;20028;-53
2023/07/13 06:49:53;;;;;;;22.30;7.82;;;;;;;;;;5062073;28;20021;-53
2023/07/13 06:52:19;;;;;;;20.85;8.35;;;;;;;;;;5071475;28;20055;-54
2023/07/13 06:54:45;;;;;;;20.10;7.00;;;;;;;;;;5070698;28;20037;-55
2023/07/13 06:57:11;;;;;;;15.30;6.65;;;;;;;;;;5071015;28;20036;-55
2023/07/13 06:59:37;;;;;;;23.27;8.02;;;;;;;;;;5051349;28;20072;-56
2023/07/13 07:02:03;;;;;;;18.10;7.57;;;;;;;;;;5051417;28;20071;-55
2023/07/13 07:04:29;;;;;;;19.80;7.25;;;;;;;;;;5049408;28;20032;-54
2023/07/13 07:06:55;;;;;;;21.05;7.88;;;;;;;;;;5050013;28;20516;-53
2023/07/13 07:09:21;;;;;;;19.33;6.82;;;;;;;;;;5051250;28;20122;-57
2023/07/13 07:11:47;;;;;;;19.45;7.80;;;;;;;;;;5050192;28;20536;-56
2023/07/13 07:14:13;;;;;;;19.83;6.88;;;;;;;;;;5050698;28;20079;-53
2023/07/13 07:16:39;;;;;;;19.08;6.60;;;;;;;;;;5073711;28;20021;-55
2023/07/13 07:19:05;;;;;;;21.83;7.40;;;;;;;;;;5080315;28;20035;-52
2023/07/13 07:21:31;;;;;;;20.75;6.97;;;;;;;;;;5072393;28;20115;-50
2023/07/13 07:23:57;;;;;;;22.60;7.43;;;;;;;;;;5071119;28;20116;-55
2023/07/13 07:26:23;;;;;;;21.70;7.20;;;;;;;;;;5071207;28;20039;-56
2023/07/13 07:28:49;;;;;;;19.45;7.07;;;;;;;;;;5071681;28;20024;-55
2023/07/13 07:31:15;;;;;;;21.27;7.85;;;;;;;;;;5071398;28;20009;-50
2023/07/13 07:33:41;;;;;;;21.23;7.93;;;;;;;;;;5071396;28;20035;-55
2023/07/13 07:36:07;;;;;;;18.17;7.28;;;;;;;;;;5070431;28;20032;-56
2023/07/13 07:38:33;;;;;;;18.75;7.18;;;;;;;;;;5071463;28;20129;-56
2023/07/13 07:41:01;;;;;;;17.85;7.93;;;;;;;;;;5071469;28;20025;-56
2023/07/13 07:43:27;;;;;;;17.48;8.02;;;;;;;;;;5071346;28;20047;-56
2023/07/13 07:45:53;;;;;;;20.92;8.02;;;;;;;;;;5070340;28;20017;-59
2023/07/13 07:48:19;;;;;;;19.67;8.10;;;;;;;;;;5070377;28;20512;-61
2023/07/13 07:50:45;;;;;;;21.70;8.45;;;;;;;;;;5073345;28;20021;-57
2023/07/13 07:53:12;;;;;;;17.48;7.43;;;;;;;;;;5075333;28;20036;-58
2023/07/13 07:55:38;;;;;;;17.90;7.80;;;;;;;;;;5074163;28;20032;-58
2023/07/13 07:58:05;;;;;;;19.05;8.38;;;;;;;;;;5075167;28;20028;-57
2023/07/13 08:00:32;;;;;;;20.15;9.00;;;;;;;;;;5074696;28;20115;-56
2023/07/13 08:02:58;;;;;;;19.80;9.00;;;;;;;;;;5074731;28;20017;-58
2023/07/13 08:05:25;;;;;;;20.35;8.45;;;;;;;;;;5073632;28;20029;-57
2023/07/13 08:07:51;;;;;;;18.85;8.48;;;;;;;;;;5074899;28;20082;-54
2023/07/13 08:10:17;;;;;;;19.77;9.23;;;;;;;;;;5074489;28;20028;-57
2023/07/13 08:12:43;;;;;;;17.67;8.45;;;;;;;;;;5074788;28;20017;-56
2023/07/13 08:15:13;;;;;;;18.73;9.63;;;;;;;;;;5073874;28;20379;-57
2023/07/13 08:17:39;;;;;;;22.08;9.30;;;;;;;;;;5074766;28;20024;-57
2023/07/13 08:20:05;;;;;;;21.35;9.30;;;;;;;;;;5074427;28;20025;-56
2023/07/13 08:22:31;;;;;;;22.85;10.80;;;;;;;;;;5074449;28;20032;-57
2023/07/13 08:24:57;;;;;;;19.02;9.13;;;;;;;;;;5073274;28;20497;-55
2023/07/13 08:27:24;;;;;;;22.85;9.23;;;;;;;;;;5074289;28;20025;-55
2023/07/13 08:29:50;;;;;;;21.40;9.77;;;;;;;;;;5074266;28;20017;-54
2023/07/13 08:32:16;;;;;;;20.60;9.05;;;;;;;;;;5074354;28;20031;-55
2023/07/13 08:34:43;;;;;;;17.77;9.70;;;;;;;;;;5072809;28;20055;-58
2023/07/13 08:37:09;;;;;;;22.70;9.40;;;;;;;;;;5070001;28;20033;-59
2023/07/13 08:39:35;;;;;;;18.25;10.25;;;;;;;;;;5072452;28;20024;-59
2023/07/13 08:42:05;;;;;;;20.75;9.38;;;;;;;;;;5073980;28;20031;-57
2023/07/13 08:44:38;;;;;;;19.60;9.45;;;;;;;;;;5072026;28;20686;-53
2023/07/13 08:47:04;;;;;;;17.00;9.23;;;;;;;;;;5073789;28;20017;-55
2023/07/13 08:49:30;;;;;;;20.45;9.75;;;;;;;;;;5074490;28;20033;-54
2023/07/13 08:51:59;;;;;;;21.02;9.77;;;;;;;;;;5074496;28;20021;-56
2023/07/13 08:54:30;;;;;;;21.23;9.40;;;;;;;;;;5073593;28;20033;-59
2023/07/13 08:56:57;;;;;;;19.85;9.05;;;;;;;;;;5074333;28;20397;-57
2023/07/13 08:59:26;;;;;;;20.83;10.07;;;;;;;;;;5074030;28;20111;-58
2023/07/13 09:02:10;;;;;;;24.80;9.70;;;;;;;;;;5072747;28;20390;-59
2023/07/13 09:04:46;;;;;;;20.05;8.80;;;;;;;;;;5073009;28;20516;-56
2023/07/13 09:07:28;;;;;;;22.02;9.43;;;;;;;;;;5073950;28;20025;-55
2023/07/13 09:09:54;;;;;;;18.52;9.60;;;;;;;;;;5074468;28;20029;-57
2023/07/13 09:12:20;;;;;;;19.90;9.73;;;;;;;;;;5074214;28;20028;-57
2023/07/13 09:14:50;;;;;;;20.52;9.63;;;;;;;;;;5073075;28;20024;-55
2023/07/13 09:17:39;;;;;;;17.80;9.20;;;;;;;;;;5072359;28;20028;-55
2023/07/13 09:20:22;;;;;;;20.10;9.75;;;;;;;;;;5070623;28;20076;-59
2023/07/13 09:22:48;;;;;;;19.42;8.30;;;;;;;;;;5073761;28;20082;-58
2023/07/13 09:25:20;;;;;;;20.20;8.82;;;;;;;;;;5072728;28;20028;-58
2023/07/13 09:27:47;;;;;;;16.77;8.32;;;;;;;;;;5073264;28;20078;-59
2023/07/13 09:30:13;;;;;;;19.58;9.00;;;;;;;;;;5073083;28;20024;-57
2023/07/13 09:32:43;;;;;;;15.90;8.02;;;;;;;;;;5073225;28;20029;-59
2023/07/13 09:35:13;;;;;;;17.33;8.50;;;;;;;;;;5071149;28;20032;-59
2023/07/13 09:37:42;;;;;;;21.83;10.02;;;;;;;;;;5073319;28;20508;-58
2023/07/13 09:40:12;;;;;;;17.23;9.32;;;;;;;;;;5073614;28;20020;-58
2023/07/13 09:42:38;;;;;;;16.08;8.50;;;;;;;;;;5069501;28;20055;-58
2023/07/13 09:45:09;;;;;;;20.33;8.98;;;;;;;;;;5061047;28;20029;-56
2023/07/13 09:47:39;;;;;;;17.63;8.60;;;;;;;;;;5067748;28;20021;-55
2023/07/13 09:50:07;;;;;;;22.13;9.35;;;;;;;;;;5069654;28;20029;-56
2023/07/13 09:52:33;;;;;;;;;;;;;;;;;;5073203;28;20028;-57
2023/07/13 09:54:59;;;;;;;19.35;8.93;;;;;;;;;;5071716;28;19950;-56
2023/07/13 09:57:27;;;;;;;18.60;9.30;;;;;;;;;;5072289;28;20028;-60
2023/07/13 09:59:56;;;;;;;18.88;9.15;;;;;;;;;;5072567;28;20086;-58
2023/07/13 10:02:22;;;;;;;;;;;;;;;;;;5073139;28;20070;-58
2023/07/13 10:04:56;;;;;;;20.45;9.38;;;;;;;;;;5071789;28;20327;-59
2023/07/13 10:07:23;;;;;;;20.70;9.35;;;;;;;;;;5073080;28;20365;-58
2023/07/13 10:09:54;;;;;;;18.10;9.45;;;;;;;;;;5072770;28;20020;-59
2023/07/13 10:12:19;;;;;;;20.10;10.52;;;;;;;;;;5072349;28;20100;-58
2023/07/13 10:14:46;;;;;;;17.90;10.00;;;;;;;;;;5071641;28;20056;-57
2023/07/13 10:17:18;;;;;;;18.65;10.00;;;;;;;;;;5072510;28;20081;-59
2023/07/13 10:19:45;;;;;;;19.83;10.88;;;;;;;;;;5072200;28;20032;-57
2023/07/13 10:22:10;;;;;;;18.25;10.27;;;;;;;;;;5072618;28;20031;-57
2023/07/13 10:24:38;;;;;;;20.13;10.90;;;;;;;;;;5069868;28;20371;-58
2023/07/13 10:27:13;;;;;;;16.95;10.50;;;;;;;;;;5072216;28;20047;-55
2023/07/13 10:29:59;;;;;;;19.80;11.63;;;;;;;;;;5071983;28;20024;-58
2023/07/13 10:32:25;;;;;;;17.15;10.00;;;;;;;;;;5071321;28;20036;-57
2023/07/13 10:34:55;;;;;;;20.40;10.23;;;;;;;;;;5071477;28;20039;-56
2023/07/13 10:37:22;;;;;;;18.58;11.75;;;;;;;;;;5070926;28;20408;-58
2023/07/13 10:39:51;;;;;;;18.35;11.13;;;;;;;;;;5072052;28;20032;-56
2023/07/13 10:42:28;;;;;;;16.90;10.68;;;;;;;;;;5071250;28;20110;-58
2023/07/13 10:44:54;;;;;;;18.80;10.85;;;;;;;;;;5069378;28;20055;-58
2023/07/13 10:47:20;;;;;;;19.70;11.10;;;;;;;;;;5071323;28;20024;-59
2023/07/13 10:49:48;;;;;;;24.55;12.80;;;;;;;;;;5071912;28;20027;-57
2023/07/13 10:52:33;;;;;;;16.30;10.13;;;;;;;;;;5071972;28;20025;-59
2023/07/13 10:55:00;;;;;;;18.23;10.65;;;;;;;;;;5071223;28;20033;-57
2023/07/13 10:57:26;;;;;;;19.20;11.10;;;;;;;;;;5072098;28;20094;-59
2023/07/13 11:00:15;;;;;;;18.33;10.82;;;;;;;;;;5071658;28;20040;-56
2023/07/13 11:02:42;;;;;;;18.00;10.57;;;;;;;;;;5069149;28;20032;-59
2023/07/13 11:05:34;;;;;;;18.17;10.38;;;;;;;;;;5070551;28;20045;-58
2023/07/13 11:08:23;;;;;;;19.67;10.52;;;;;;;;;;5070513;28;20043;-57
2023/07/13 11:10:52;;;;;;;17.30;10.20;;;;;;;;;;5068361;28;20115;-57
2023/07/13 11:13:38;;;;;;;19.75;9.55;;;;;;;;;;5071570;28;20032;-58
2023/07/13 11:16:33;;;;;;;16.33;9.95;;;;;;;;;;5070816;28;20029;-58
2023/07/13 11:19:02;;;;;;;17.17;10.07;;;;;;;;;;5062933;28;20141;-59
2023/07/13 11:21:30;;;;;;;19.52;10.98;;;;;;;;;;5071892;28;20024;-61
2023/07/13 11:24:22;;;;;;;19.67;10.98;;;;;;;;;;5071247;28;20024;-56
2023/07/13 11:26:48;;;;;;;18.88;10.77;;;;;;;;;;5070787;28;20044;-59
2023/07/13 11:29:17;;;;;;;16.83;10.05;;;;;;;;;;5071123;28;20023;-59
2023/07/13 11:31:44;;;;;;;18.02;11.07;;;;;;;;;;5070961;28;20028;-58
2023/07/13 11:34:16;;;;;;;17.88;10.80;;;;;;;;;;5070946;28;20029;-58
2023/07/13 11:36:45;;;;;;;17.83;10.60;;;;;;;;;;5071401;28;20074;-55
2023/07/13 11:39:11;;;;;;;19.23;10.57;;;;;;;;;;5071374;28;20056;-59
2023/07/13 11:41:43;;;;;;;16.42;10.05;;;;;;;;;;5071243;28;20051;-60
2023/07/13 11:44:14;;;;;;;17.05;9.98;;;;;;;;;;5070643;28;20049;-58
2023/07/13 11:46:44;;;;;;;16.67;10.85;;;;;;;;;;5069244;28;20070;-59
2023/07/13 11:49:14;;;;;;;17.92;10.57;;;;;;;;;;5071141;28;20025;-60
2023/07/13 11:51:40;;;;;;;18.73;10.35;;;;;;;;;;5071284;28;20095;-59
2023/07/13 11:54:12;;;;;;;16.27;9.55;;;;;;;;;;5070958;28;20028;-59
2023/07/13 11:56:38;;;;;;;17.55;9.93;;;;;;;;;;5070762;28;20024;-58
2023/07/13 11:59:05;;;;;;;18.33;9.77;;;;;;;;;;5069337;28;20036;-60
2023/07/13 12:01:34;;;;;;;19.00;10.43;;;;;;;;;;5065237;28;20029;-62
2023/07/13 12:04:06;;;;;;;16.30;9.95;;;;;;;;;;5070085;28;20059;-58
2023/07/13 12:06:33;;;;;;;15.93;10.40;;;;;;;;;;5070588;28;20128;-48
2023/07/13 12:09:03;;;;;;;15.65;10.35;;;;;;;;;;5070879;28;20500;-49
2023/07/13 12:11:29;;;;;;;19.98;10.70;;;;;;;;;;5070983;28;20024;-47
2023/07/13 12:13:56;;;;;;;18.13;11.40;;;;;;;;;;5070328;28;20039;-49
2023/07/13 12:16:25;;;;;;;17.95;11.95;;;;;;;;;;5070716;28;20032;-50
2023/07/13 12:18:52;;;;;;;17.50;11.30;;;;;;;;;;5070125;28;20481;-55
2023/07/13 12:21:19;;;;;;;15.88;11.38;;;;;;;;;;5070498;28;20039;-52
2023/07/13 12:23:49;;;;;;;17.60;12.15;;;;;;;;;;5070628;28;20025;-56
2023/07/13 12:26:15;;;;;;;15.88;11.32;;;;;;;;;;5070432;28;20430;-54
2023/07/13 12:28:47;;;;;;;16.58;11.88;;;;;;;;;;5069150;28;20021;-55
2023/07/13 12:31:32;;;;;;;17.55;11.90;;;;;;;;;;5069959;28;20053;-54
2023/07/13 12:33:59;;;;;;;19.10;11.40;;;;;;;;;;5067949;28;20032;-50
2023/07/13 12:36:25;;;;;;;19.85;12.48;;;;;;;;;;5071496;28;20033;-59
2023/07/13 12:38:51;;;;;;;19.17;14.20;;;;;;;;;;5073694;28;20078;-53
2023/07/13 12:41:18;;;;;;;19.80;12.77;;;;;;;;;;5074132;28;20031;-50
2023/07/13 12:43:45;;;;;;;17.77;11.15;;;;;;;;;;5073414;28;20143;-53
2023/07/13 12:46:17;;;;;;;18.05;10.70;;;;;;;;;;5073386;28;20024;-52
2023/07/13 12:48:45;;;;;;;18.77;11.13;;;;;;;;;;4714800;28;10000107;-56
2023/07/13 12:51:12;;;;;;;18.45;11.65;;;;;;;;;;5065194;28;20028;-55
2023/07/13 12:54:01;;;;;;;19.27;12.43;;;;;;;;;;5053850;28;20029;-55
2023/07/13 12:56:30;;;;;;;17.92;12.20;;;;;;;;;;5050227;28;20764;-59
2023/07/13 12:58:59;;;;;;;20.70;12.30;;;;;;;;;;5070366;28;20051;-60
2023/07/13 13:01:28;;;;;;;19.42;11.15;;;;;;;;;;5068819;28;20119;-56
2023/07/13 13:03:55;;;;;;;18.00;11.45;;;;;;;;;;5069711;28;20072;-55
2023/07/13 13:06:28;;;;;;;20.23;10.65;;;;;;;;;;5053457;28;20021;-56
2023/07/13 13:08:58;;;;;;;19.08;11.20;;;;;;;;;;5048400;28;20025;-58
2023/07/13 13:11:26;;;;;;;19.35;10.23;;;;;;;;;;5049708;28;20025;-58
2023/07/13 13:13:52;;;;;;;19.23;10.60;;;;;;;;;;5049678;28;20724;-55
2023/07/13 13:16:24;;;;;;;20.98;11.05;;;;;;;;;;5049491;28;20059;-57
2023/07/13 13:18:51;;;;;;;17.77;10.30;;;;;;;;;;5052713;28;20531;-58
2023/07/13 13:21:18;;;;;;;16.52;10.52;;;;;;;;;;5056646;28;20032;-55
2023/07/13 13:23:47;;;;;;;20.88;10.75;;;;;;;;;;5050497;28;20029;-54
2023/07/13 13:26:15;;;;;;;18.38;10.52;;;;;;;;;;5048266;28;20078;-52
2023/07/13 13:28:41;;;;;;;17.67;10.25;;;;;;;;;;5048711;28;20108;-57
2023/07/13 13:31:12;;;;;;;17.63;9.98;;;;;;;;;;5048829;28;20240;-58
2023/07/13 13:33:42;;;;;;;16.15;9.93;;;;;;;;;;5049737;28;20068;-55
2023/07/13 13:36:12;;;;;;;16.55;9.40;;;;;;;;;;5048637;28;20035;-58
2023/07/13 13:38:38;;;;;;;16.17;9.63;;;;;;;;;;5049045;28;20033;-58
2023/07/13 13:41:04;;;;;;;15.20;8.65;;;;;;;;;;5049705;28;20047;-58
2023/07/13 13:43:30;;;;;;;16.48;9.32;;;;;;;;;;5067116;28;20020;-54
2023/07/13 13:45:58;;;;;;;15.55;8.60;;;;;;;;;;5068648;28;20036;-54
2023/07/13 13:48:32;;;;;;;17.88;9.10;;;;;;;;;;5067541;28;20040;-57
2023/07/13 13:50:58;;;;;;;17.70;9.23;;;;;;;;;;5068786;28;20480;-56
2023/07/13 13:53:24;;;;;;;17.45;9.02;;;;;;;;;;5068773;28;20108;-58
2023/07/13 13:55:52;;;;;;;20.52;8.80;;;;;;;;;;5068269;28;20457;-58
2023/07/13 13:58:18;;;;;;;22.73;8.80;;;;;;;;;;5068828;28;20097;-59
2023/07/13 14:00:45;;;;;;;16.92;11.68;;;;;;;;;;5068343;28;20101;-56
2023/07/13 14:03:29;;;;;;;18.60;14.80;;;;;;;;;;5068746;28;20029;-58
2023/07/13 14:05:57;;;;;;;25.38;17.90;;;;;;;;;;5067846;28;20024;-54
2023/07/13 14:08:23;;;;;;;20.02;17.88;;;;;;;;;;5069139;28;20025;-57
2023/07/13 14:10:51;;;;;;;21.35;19.15;;;;;;;;;;5068010;28;20115;-56
2023/07/13 14:13:18;;;;;;;22.00;19.73;;;;;;;;;;5067282;28;20044;-55
2023/07/13 14:15:44;;;;;;;26.50;24.02;;;;;;;;;;5067701;28;20369;-54
2023/07/13 14:18:11;;;;;;;23.83;21.52;;;;;;;;;;5068485;28;20024;-54
2023/07/13 14:20:37;;;;;;;20.35;18.15;;;;;;;;;;5068359;28;20448;-58
2023/07/13 14:23:03;;;;;;;21.30;15.48;;;;;;;;;;5048397;28;20032;-56
2023/07/13 14:25:30;;;;;;;21.80;16.40;;;;;;;;;;5047411;28;20021;-58
2023/07/13 14:28:07;;;;;;;19.88;15.18;;;;;;;;;;5048351;28;20052;-57
2023/07/13 14:30:33;;;;;;;18.80;13.98;;;;;;;;;;5047742;28;20085;-58